sensor_id;sensor_type;location;lat;lon;timestamp;temperature;humidity
22714;DHT22;11524;50.846;4.326;2023-02-28T00:00:44;15.90;61.30
22714;DHT22;11524;50.846;4.326;2023-02-28T00:03:10;15.90;61.60
22714;DHT22;11524;50.846;4.326;2023-02-28T00:05:35;15.90;62.70
22714;DHT22;11524;50.846;4.326;2023-02-28T00:08:01;15.90;62.10
22714;DHT22;11524;50.846;4.326;2023-02-28T00:10:29;16.00;61.80
22714;DHT22;11524;50.846;4.326;2023-02-28T00:12:59;15.90;61.60
22714;DHT22;11524;50.846;4.326;2023-02-28T00:15:25;15.90;61.80
22714;DHT22;11524;50.846;4.326;2023-02-28T00:17:51;16.00;62.00
22714;DHT22;11524;50.846;4.326;2023-02-28T00:20:17;15.90;61.40
22714;DHT22;11524;50.846;4.326;2023-02-28T00:22:45;15.80;61.50
22714;DHT22;11524;50.846;4.326;2023-02-28T00:25:13;15.90;62.00
22714;DHT22;11524;50.846;4.326;2023-02-28T00:27:39;15.90;61.60
22714;DHT22;11524;50.846;4.326;2023-02-28T00:30:07;15.90;61.90
22714;DHT22;11524;50.846;4.326;2023-02-28T00:32:33;15.90;61.20
22714;DHT22;11524;50.846;4.326;2023-02-28T00:35:00;15.90;61.20
22714;DHT22;11524;50.846;4.326;2023-02-28T00:37:25;15.90;61.60
22714;DHT22;11524;50.846;4.326;2023-02-28T00:39:51;15.80;61.80
22714;DHT22;11524;50.846;4.326;2023-02-28T00:42:16;15.80;62.40
22714;DHT22;11524;50.846;4.326;2023-02-28T00:44:42;15.90;62.80
22714;DHT22;11524;50.846;4.326;2023-02-28T00:47:07;15.90;62.70
22714;DHT22;11524;50.846;4.326;2023-02-28T00:49:33;15.90;61.80
22714;DHT22;11524;50.846;4.326;2023-02-28T00:51:59;15.90;61.80
22714;DHT22;11524;50.846;4.326;2023-02-28T00:54:24;15.80;62.90
22714;DHT22;11524;50.846;4.326;2023-02-28T00:56:50;15.80;62.60
22714;DHT22;11524;50.846;4.326;2023-02-28T00:59:17;15.80;62.80
22714;DHT22;11524;50.846;4.326;2023-02-28T01:01:44;15.80;62.30
22714;DHT22;11524;50.846;4.326;2023-02-28T01:04:10;15.90;62.20
22714;DHT22;11524;50.846;4.326;2023-02-28T01:06:36;15.80;62.20
22714;DHT22;11524;50.846;4.326;2023-02-28T01:09:03;15.80;62.30
22714;DHT22;11524;50.846;4.326;2023-02-28T01:11:30;15.80;62.20
22714;DHT22;11524;50.846;4.326;2023-02-28T01:13:55;15.80;62.30
22714;DHT22;11524;50.846;4.326;2023-02-28T01:16:22;15.80;62.60
22714;DHT22;11524;50.846;4.326;2023-02-28T01:18:48;15.80;62.80
22714;DHT22;11524;50.846;4.326;2023-02-28T01:21:16;15.80;62.40
22714;DHT22;11524;50.846;4.326;2023-02-28T01:23:42;15.80;63.50
22714;DHT22;11524;50.846;4.326;2023-02-28T01:26:13;15.80;63.20
22714;DHT22;11524;50.846;4.326;2023-02-28T01:28:40;15.80;64.00
22714;DHT22;11524;50.846;4.326;2023-02-28T01:31:06;15.80;63.30
22714;DHT22;11524;50.846;4.326;2023-02-28T01:33:32;15.80;63.10
22714;DHT22;11524;50.846;4.326;2023-02-28T01:36:03;15.80;63.30
22714;DHT22;11524;50.846;4.326;2023-02-28T01:38:29;15.80;63.70
22714;DHT22;11524;50.846;4.326;2023-02-28T01:40:55;15.80;63.30
22714;DHT22;11524;50.846;4.326;2023-02-28T01:43:26;15.90;64.00
22714;DHT22;11524;50.846;4.326;2023-02-28T01:45:54;15.80;63.40
22714;DHT22;11524;50.846;4.326;2023-02-28T01:48:26;15.80;63.40
22714;DHT22;11524;50.846;4.326;2023-02-28T01:50:55;15.90;63.40
22714;DHT22;11524;50.846;4.326;2023-02-28T01:53:30;15.80;63.30
22714;DHT22;11524;50.846;4.326;2023-02-28T01:55:57;15.80;63.80
22714;DHT22;11524;50.846;4.326;2023-02-28T01:58:22;15.80;64.70
22714;DHT22;11524;50.846;4.326;2023-02-28T02:00:48;15.80;63.20
22714;DHT22;11524;50.846;4.326;2023-02-28T02:03:16;15.80;58.00
22714;DHT22;11524;50.846;4.326;2023-02-28T02:05:45;15.70;57.40
22714;DHT22;11524;50.846;4.326;2023-02-28T02:08:16;15.60;57.70
22714;DHT22;11524;50.846;4.326;2023-02-28T02:10:48;15.60;57.50
22714;DHT22;11524;50.846;4.326;2023-02-28T02:16:31;15.50;56.90
22714;DHT22;11524;50.846;4.326;2023-02-28T02:19:14;15.50;57.00
22714;DHT22;11524;50.846;4.326;2023-02-28T02:35:54;15.40;56.60
22714;DHT22;11524;50.846;4.326;2023-02-28T02:44:07;15.30;56.60
22714;DHT22;11524;50.846;4.326;2023-02-28T02:46:42;15.20;56.60
22714;DHT22;11524;50.846;4.326;2023-02-28T02:49:13;15.30;57.00
22714;DHT22;11524;50.846;4.326;2023-02-28T02:51:40;15.20;57.00
22714;DHT22;11524;50.846;4.326;2023-02-28T02:54:31;15.20;57.00
22714;DHT22;11524;50.846;4.326;2023-02-28T02:57:01;15.20;56.50
22714;DHT22;11524;50.846;4.326;2023-02-28T02:59:30;15.20;56.90
22714;DHT22;11524;50.846;4.326;2023-02-28T03:01:59;15.20;57.10
22714;DHT22;11524;50.846;4.326;2023-02-28T03:04:36;15.20;57.00
22714;DHT22;11524;50.846;4.326;2023-02-28T03:07:03;15.20;56.50
22714;DHT22;11524;50.846;4.326;2023-02-28T03:09:32;15.20;56.80
22714;DHT22;11524;50.846;4.326;2023-02-28T03:11:58;15.10;57.00
22714;DHT22;11524;50.846;4.326;2023-02-28T03:17:22;15.10;56.80
22714;DHT22;11524;50.846;4.326;2023-02-28T03:23:13;15.10;56.60
22714;DHT22;11524;50.846;4.326;2023-02-28T03:29:02;15.10;56.40
22714;DHT22;11524;50.846;4.326;2023-02-28T03:31:22;15.00;56.00
22714;DHT22;11524;50.846;4.326;2023-02-28T03:34:04;15.00;56.40
22714;DHT22;11524;50.846;4.326;2023-02-28T03:36:38;15.00;56.70
22714;DHT22;11524;50.846;4.326;2023-02-28T03:39:17;15.10;57.50
22714;DHT22;11524;50.846;4.326;2023-02-28T03:42:12;15.00;57.20
22714;DHT22;11524;50.846;4.326;2023-02-28T03:44:49;15.00;56.80
22714;DHT22;11524;50.846;4.326;2023-02-28T03:47:46;15.00;56.30
22714;DHT22;11524;50.846;4.326;2023-02-28T03:52:58;15.00;56.30
22714;DHT22;11524;50.846;4.326;2023-02-28T03:55:32;14.90;56.30
22714;DHT22;11524;50.846;4.326;2023-02-28T03:58:47;14.90;56.80
22714;DHT22;11524;50.846;4.326;2023-02-28T04:01:20;14.90;56.40
22714;DHT22;11524;50.846;4.326;2023-02-28T04:03:48;14.90;56.70
22714;DHT22;11524;50.846;4.326;2023-02-28T04:06:17;14.90;56.40
22714;DHT22;11524;50.846;4.326;2023-02-28T04:08:43;14.90;56.60
22714;DHT22;11524;50.846;4.326;2023-02-28T04:11:20;14.90;56.50
22714;DHT22;11524;50.846;4.326;2023-02-28T04:13:46;14.90;56.00
22714;DHT22;11524;50.846;4.326;2023-02-28T04:16:12;14.90;56.40
22714;DHT22;11524;50.846;4.326;2023-02-28T04:18:38;14.90;56.70
22714;DHT22;11524;50.846;4.326;2023-02-28T04:21:05;14.90;56.80
22714;DHT22;11524;50.846;4.326;2023-02-28T04:23:31;14.90;56.30
22714;DHT22;11524;50.846;4.326;2023-02-28T04:25:56;14.90;56.00
22714;DHT22;11524;50.846;4.326;2023-02-28T04:28:22;14.80;56.00
22714;DHT22;11524;50.846;4.326;2023-02-28T04:30:53;14.90;56.20
22714;DHT22;11524;50.846;4.326;2023-02-28T04:33:19;14.80;55.90
22714;DHT22;11524;50.846;4.326;2023-02-28T04:35:45;14.80;56.00
22714;DHT22;11524;50.846;4.326;2023-02-28T04:38:10;14.80;55.80
22714;DHT22;11524;50.846;4.326;2023-02-28T04:40:36;14.80;55.70
22714;DHT22;11524;50.846;4.326;2023-02-28T04:43:01;14.80;55.70
22714;DHT22;11524;50.846;4.326;2023-02-28T04:45:28;14.80;55.60
22714;DHT22;11524;50.846;4.326;2023-02-28T04:47:57;14.80;55.90
22714;DHT22;11524;50.846;4.326;2023-02-28T04:50:23;14.90;55.90
22714;DHT22;11524;50.846;4.326;2023-02-28T04:52:48;14.80;55.60
22714;DHT22;11524;50.846;4.326;2023-02-28T04:55:14;14.80;55.70
22714;DHT22;11524;50.846;4.326;2023-02-28T04:57:40;14.80;55.90
22714;DHT22;11524;50.846;4.326;2023-02-28T05:00:08;14.80;55.70
22714;DHT22;11524;50.846;4.326;2023-02-28T05:02:37;14.70;55.40
22714;DHT22;11524;50.846;4.326;2023-02-28T05:05:02;14.70;55.60
22714;DHT22;11524;50.846;4.326;2023-02-28T05:07:28;14.80;55.60
22714;DHT22;11524;50.846;4.326;2023-02-28T05:09:54;14.80;55.40
22714;DHT22;11524;50.846;4.326;2023-02-28T05:12:20;14.70;55.40
22714;DHT22;11524;50.846;4.326;2023-02-28T05:14:45;14.80;55.20
22714;DHT22;11524;50.846;4.326;2023-02-28T05:17:11;14.70;55.50
22714;DHT22;11524;50.846;4.326;2023-02-28T05:19:36;14.70;55.90
22714;DHT22;11524;50.846;4.326;2023-02-28T05:22:02;14.70;55.60
22714;DHT22;11524;50.846;4.326;2023-02-28T05:24:28;14.70;56.10
22714;DHT22;11524;50.846;4.326;2023-02-28T05:26:54;14.60;55.40
22714;DHT22;11524;50.846;4.326;2023-02-28T05:29:20;14.70;55.70
22714;DHT22;11524;50.846;4.326;2023-02-28T05:31:46;14.70;55.80
22714;DHT22;11524;50.846;4.326;2023-02-28T05:34:12;14.70;55.70
22714;DHT22;11524;50.846;4.326;2023-02-28T05:36:38;14.70;55.60
22714;DHT22;11524;50.846;4.326;2023-02-28T05:39:07;14.70;55.40
22714;DHT22;11524;50.846;4.326;2023-02-28T05:41:38;14.70;55.60
22714;DHT22;11524;50.846;4.326;2023-02-28T05:44:04;14.70;55.70
22714;DHT22;11524;50.846;4.326;2023-02-28T05:46:30;14.60;55.50
22714;DHT22;11524;50.846;4.326;2023-02-28T05:48:55;14.70;55.60
22714;DHT22;11524;50.846;4.326;2023-02-28T05:51:23;14.60;55.80
22714;DHT22;11524;50.846;4.326;2023-02-28T05:53:48;14.70;56.20
22714;DHT22;11524;50.846;4.326;2023-02-28T05:56:14;14.70;56.30
22714;DHT22;11524;50.846;4.326;2023-02-28T05:58:40;14.70;56.20
22714;DHT22;11524;50.846;4.326;2023-02-28T06:03:59;14.60;55.20
22714;DHT22;11524;50.846;4.326;2023-02-28T06:06:25;14.70;55.70
22714;DHT22;11524;50.846;4.326;2023-02-28T06:08:50;14.70;56.00
22714;DHT22;11524;50.846;4.326;2023-02-28T06:11:16;14.70;56.10
22714;DHT22;11524;50.846;4.326;2023-02-28T06:13:41;14.60;56.00
22714;DHT22;11524;50.846;4.326;2023-02-28T06:16:10;14.70;56.30
22714;DHT22;11524;50.846;4.326;2023-02-28T06:18:36;14.70;55.90
22714;DHT22;11524;50.846;4.326;2023-02-28T06:21:02;14.70;55.80
22714;DHT22;11524;50.846;4.326;2023-02-28T06:23:27;14.60;55.90
22714;DHT22;11524;50.846;4.326;2023-02-28T06:25:53;14.60;55.80
22714;DHT22;11524;50.846;4.326;2023-02-28T06:28:19;14.70;55.90
22714;DHT22;11524;50.846;4.326;2023-02-28T06:30:44;14.70;55.60
22714;DHT22;11524;50.846;4.326;2023-02-28T06:33:10;14.60;55.90
22714;DHT22;11524;50.846;4.326;2023-02-28T06:35:35;14.70;56.60
22714;DHT22;11524;50.846;4.326;2023-02-28T06:38:01;14.70;56.50
22714;DHT22;11524;50.846;4.326;2023-02-28T06:40:27;14.70;55.90
22714;DHT22;11524;50.846;4.326;2023-02-28T06:42:52;14.70;55.90
22714;DHT22;11524;50.846;4.326;2023-02-28T06:45:18;14.70;55.80
22714;DHT22;11524;50.846;4.326;2023-02-28T06:47:44;14.70;55.60
22714;DHT22;11524;50.846;4.326;2023-02-28T06:50:11;15.00;52.60
22714;DHT22;11524;50.846;4.326;2023-02-28T06:52:37;15.20;51.30
22714;DHT22;11524;50.846;4.326;2023-02-28T06:55:04;15.40;52.00
22714;DHT22;11524;50.846;4.326;2023-02-28T06:57:31;15.50;51.20
22714;DHT22;11524;50.846;4.326;2023-02-28T06:59:58;15.70;51.10
22714;DHT22;11524;50.846;4.326;2023-02-28T07:02:24;15.70;50.80
22714;DHT22;11524;50.846;4.326;2023-02-28T07:04:50;15.80;50.40
22714;DHT22;11524;50.846;4.326;2023-02-28T07:07:15;15.90;49.90
22714;DHT22;11524;50.846;4.326;2023-02-28T07:09:41;16.00;49.90
22714;DHT22;11524;50.846;4.326;2023-02-28T07:12:06;16.10;49.60
22714;DHT22;11524;50.846;4.326;2023-02-28T07:14:32;16.10;49.90
22714;DHT22;11524;50.846;4.326;2023-02-28T07:16:58;16.10;50.00
22714;DHT22;11524;50.846;4.326;2023-02-28T07:19:24;16.20;49.60
22714;DHT22;11524;50.846;4.326;2023-02-28T07:21:50;16.30;49.30
22714;DHT22;11524;50.846;4.326;2023-02-28T07:24:15;16.30;49.90
22714;DHT22;11524;50.846;4.326;2023-02-28T07:26:43;16.40;49.50
22714;DHT22;11524;50.846;4.326;2023-02-28T07:29:08;16.40;49.30
22714;DHT22;11524;50.846;4.326;2023-02-28T07:31:34;16.40;48.90
22714;DHT22;11524;50.846;4.326;2023-02-28T07:34:00;16.50;49.50
22714;DHT22;11524;50.846;4.326;2023-02-28T07:36:25;16.60;48.60
22714;DHT22;11524;50.846;4.326;2023-02-28T07:38:51;16.50;48.70
22714;DHT22;11524;50.846;4.326;2023-02-28T07:41:19;16.60;48.50
22714;DHT22;11524;50.846;4.326;2023-02-28T07:43:45;16.70;48.20
22714;DHT22;11524;50.846;4.326;2023-02-28T07:46:13;16.90;48.30
22714;DHT22;11524;50.846;4.326;2023-02-28T07:48:43;17.00;47.90
22714;DHT22;11524;50.846;4.326;2023-02-28T07:51:10;17.10;47.50
22714;DHT22;11524;50.846;4.326;2023-02-28T07:53:35;17.20;47.50
22714;DHT22;11524;50.846;4.326;2023-02-28T07:56:02;17.20;47.40
22714;DHT22;11524;50.846;4.326;2023-02-28T07:58:29;17.30;47.20
22714;DHT22;11524;50.846;4.326;2023-02-28T08:00:55;17.30;47.20
22714;DHT22;11524;50.846;4.326;2023-02-28T08:03:22;17.30;47.30
22714;DHT22;11524;50.846;4.326;2023-02-28T08:05:49;17.30;47.20
22714;DHT22;11524;50.846;4.326;2023-02-28T08:08:15;17.30;47.40
22714;DHT22;11524;50.846;4.326;2023-02-28T08:10:42;17.30;47.80
22714;DHT22;11524;50.846;4.326;2023-02-28T08:13:08;17.30;47.40
22714;DHT22;11524;50.846;4.326;2023-02-28T08:15:34;17.30;47.30
22714;DHT22;11524;50.846;4.326;2023-02-28T08:17:59;17.30;47.60
22714;DHT22;11524;50.846;4.326;2023-02-28T08:20:26;17.40;47.50
22714;DHT22;11524;50.846;4.326;2023-02-28T08:22:52;17.40;47.30
22714;DHT22;11524;50.846;4.326;2023-02-28T08:25:18;17.40;47.00
22714;DHT22;11524;50.846;4.326;2023-02-28T08:27:43;17.40;47.00
22714;DHT22;11524;50.846;4.326;2023-02-28T08:30:13;17.50;47.10
22714;DHT22;11524;50.846;4.326;2023-02-28T08:32:40;17.50;47.00
22714;DHT22;11524;50.846;4.326;2023-02-28T08:35:06;17.50;46.90
22714;DHT22;11524;50.846;4.326;2023-02-28T08:37:32;17.50;46.80
22714;DHT22;11524;50.846;4.326;2023-02-28T08:39:57;17.60;46.50
22714;DHT22;11524;50.846;4.326;2023-02-28T08:42:24;17.60;46.30
22714;DHT22;11524;50.846;4.326;2023-02-28T08:44:49;17.50;46.20
22714;DHT22;11524;50.846;4.326;2023-02-28T08:47:15;17.60;45.90
22714;DHT22;11524;50.846;4.326;2023-02-28T08:49:41;17.60;46.00
22714;DHT22;11524;50.846;4.326;2023-02-28T08:52:06;17.60;46.30
22714;DHT22;11524;50.846;4.326;2023-02-28T08:54:32;17.60;45.70
22714;DHT22;11524;50.846;4.326;2023-02-28T08:56:59;17.60;45.80
22714;DHT22;11524;50.846;4.326;2023-02-28T08:59:24;17.60;45.90
22714;DHT22;11524;50.846;4.326;2023-02-28T09:01:50;17.60;46.00
22714;DHT22;11524;50.846;4.326;2023-02-28T09:04:16;17.70;45.50
22714;DHT22;11524;50.846;4.326;2023-02-28T09:06:41;17.60;45.20
22714;DHT22;11524;50.846;4.326;2023-02-28T09:09:07;17.70;44.60
22714;DHT22;11524;50.846;4.326;2023-02-28T09:11:33;17.70;45.10
22714;DHT22;11524;50.846;4.326;2023-02-28T09:14:00;17.70;44.90
22714;DHT22;11524;50.846;4.326;2023-02-28T09:16:26;17.70;44.50
22714;DHT22;11524;50.846;4.326;2023-02-28T09:18:51;17.70;44.70
22714;DHT22;11524;50.846;4.326;2023-02-28T09:21:19;17.70;44.40
22714;DHT22;11524;50.846;4.326;2023-02-28T09:23:46;17.70;44.30
22714;DHT22;11524;50.846;4.326;2023-02-28T09:26:24;17.80;44.40
22714;DHT22;11524;50.846;4.326;2023-02-28T09:28:50;17.70;44.30
22714;DHT22;11524;50.846;4.326;2023-02-28T09:31:20;17.70;44.10
22714;DHT22;11524;50.846;4.326;2023-02-28T09:33:47;17.70;44.00
22714;DHT22;11524;50.846;4.326;2023-02-28T09:36:13;17.70;43.50
22714;DHT22;11524;50.846;4.326;2023-02-28T09:38:39;17.70;43.30
22714;DHT22;11524;50.846;4.326;2023-02-28T09:41:14;17.70;43.30
22714;DHT22;11524;50.846;4.326;2023-02-28T09:43:46;17.70;43.30
22714;DHT22;11524;50.846;4.326;2023-02-28T09:48:54;17.70;42.90
22714;DHT22;11524;50.846;4.326;2023-02-28T09:53:53;17.70;43.00
22714;DHT22;11524;50.846;4.326;2023-02-28T09:56:25;17.60;42.80
22714;DHT22;11524;50.846;4.326;2023-02-28T09:59:14;17.70;42.50
22714;DHT22;11524;50.846;4.326;2023-02-28T10:01:57;17.70;43.20
22714;DHT22;11524;50.846;4.326;2023-02-28T10:04:59;17.60;42.70
22714;DHT22;11524;50.846;4.326;2023-02-28T10:10:25;17.60;42.80
22714;DHT22;11524;50.846;4.326;2023-02-28T10:12:54;17.70;42.50
22714;DHT22;11524;50.846;4.326;2023-02-28T10:15:23;17.70;42.70
22714;DHT22;11524;50.846;4.326;2023-02-28T10:17:54;17.60;41.70
22714;DHT22;11524;50.846;4.326;2023-02-28T10:20:23;17.60;41.50
22714;DHT22;11524;50.846;4.326;2023-02-28T10:25:40;17.60;41.20
22714;DHT22;11524;50.846;4.326;2023-02-28T10:28:11;17.70;42.50
22714;DHT22;11524;50.846;4.326;2023-02-28T10:30:40;17.60;42.60
22714;DHT22;11524;50.846;4.326;2023-02-28T10:33:23;17.70;41.80
22714;DHT22;11524;50.846;4.326;2023-02-28T10:35:50;17.60;42.00
22714;DHT22;11524;50.846;4.326;2023-02-28T10:38:28;17.60;41.90
22714;DHT22;11524;50.846;4.326;2023-02-28T10:41:13;17.60;41.60
22714;DHT22;11524;50.846;4.326;2023-02-28T10:43:41;17.60;41.50
22714;DHT22;11524;50.846;4.326;2023-02-28T10:48:44;17.60;42.40
22714;DHT22;11524;50.846;4.326;2023-02-28T10:51:12;17.60;42.10
22714;DHT22;11524;50.846;4.326;2023-02-28T10:53:53;17.60;41.70
22714;DHT22;11524;50.846;4.326;2023-02-28T10:56:21;17.60;42.00
22714;DHT22;11524;50.846;4.326;2023-02-28T10:59:02;17.60;41.90
22714;DHT22;11524;50.846;4.326;2023-02-28T11:01:39;17.60;41.10
22714;DHT22;11524;50.846;4.326;2023-02-28T11:07:03;17.60;41.70
22714;DHT22;11524;50.846;4.326;2023-02-28T11:09:38;17.60;41.30
22714;DHT22;11524;50.846;4.326;2023-02-28T11:12:10;17.50;42.10
22714;DHT22;11524;50.846;4.326;2023-02-28T11:14:58;17.60;41.40
22714;DHT22;11524;50.846;4.326;2023-02-28T11:17:26;17.60;42.10
22714;DHT22;11524;50.846;4.326;2023-02-28T11:19:56;17.60;41.10
22714;DHT22;11524;50.846;4.326;2023-02-28T11:22:26;17.50;41.70
22714;DHT22;11524;50.846;4.326;2023-02-28T11:24:56;17.50;41.50
22714;DHT22;11524;50.846;4.326;2023-02-28T11:29:59;17.50;41.50
22714;DHT22;11524;50.846;4.326;2023-02-28T11:32:29;17.60;41.90
22714;DHT22;11524;50.846;4.326;2023-02-28T11:37:37;17.50;41.70
22714;DHT22;11524;50.846;4.326;2023-02-28T11:40:17;17.50;41.20
22714;DHT22;11524;50.846;4.326;2023-02-28T11:43:09;17.50;40.50
22714;DHT22;11524;50.846;4.326;2023-02-28T11:48:21;17.60;42.00
22714;DHT22;11524;50.846;4.326;2023-02-28T11:55:55;17.60;42.20
22714;DHT22;11524;50.846;4.326;2023-02-28T12:07:03;17.60;42.20
22714;DHT22;11524;50.846;4.326;2023-02-28T12:09:53;17.60;41.60
22714;DHT22;11524;50.846;4.326;2023-02-28T12:15:53;17.60;41.50
22714;DHT22;11524;50.846;4.326;2023-02-28T12:21:08;17.60;41.70
22714;DHT22;11524;50.846;4.326;2023-02-28T12:24:05;17.60;41.90
22714;DHT22;11524;50.846;4.326;2023-02-28T12:26:44;17.60;41.60
22714;DHT22;11524;50.846;4.326;2023-02-28T12:29:19;17.60;42.00
22714;DHT22;11524;50.846;4.326;2023-02-28T12:32:05;17.60;41.80
22714;DHT22;11524;50.846;4.326;2023-02-28T12:34:44;17.60;42.00
22714;DHT22;11524;50.846;4.326;2023-02-28T12:37:15;17.60;42.20
22714;DHT22;11524;50.846;4.326;2023-02-28T12:39:49;17.60;42.00
22714;DHT22;11524;50.846;4.326;2023-02-28T12:42:38;17.60;42.00
22714;DHT22;11524;50.846;4.326;2023-02-28T12:45:05;17.60;41.70
22714;DHT22;11524;50.846;4.326;2023-02-28T12:47:34;17.70;41.70
22714;DHT22;11524;50.846;4.326;2023-02-28T12:50:04;17.60;41.70
22714;DHT22;11524;50.846;4.326;2023-02-28T12:57:53;17.70;41.10
22714;DHT22;11524;50.846;4.326;2023-02-28T13:00:29;17.60;41.30
22714;DHT22;11524;50.846;4.326;2023-02-28T13:09:08;17.70;41.70
22714;DHT22;11524;50.846;4.326;2023-02-28T13:11:43;17.70;41.40
22714;DHT22;11524;50.846;4.326;2023-02-28T13:14:37;17.60;41.70
22714;DHT22;11524;50.846;4.326;2023-02-28T13:19:37;17.60;42.30
22714;DHT22;11524;50.846;4.326;2023-02-28T13:22:04;17.70;42.00
22714;DHT22;11524;50.846;4.326;2023-02-28T13:29:32;17.70;42.40
22714;DHT22;11524;50.846;4.326;2023-02-28T13:34:32;17.70;42.10
22714;DHT22;11524;50.846;4.326;2023-02-28T13:40:06;17.70;42.50
22714;DHT22;11524;50.846;4.326;2023-02-28T13:42:49;17.80;42.00
22714;DHT22;11524;50.846;4.326;2023-02-28T13:45:28;17.80;41.70
22714;DHT22;11524;50.846;4.326;2023-02-28T13:48:03;17.70;42.60
22714;DHT22;11524;50.846;4.326;2023-02-28T14:01:36;17.70;41.60
22714;DHT22;11524;50.846;4.326;2023-02-28T14:06:55;17.80;42.00
22714;DHT22;11524;50.846;4.326;2023-02-28T14:12:49;17.80;41.60
22714;DHT22;11524;50.846;4.326;2023-02-28T14:17:14;17.90;41.10
22714;DHT22;11524;50.846;4.326;2023-02-28T14:19:44;17.80;41.00
22714;DHT22;11524;50.846;4.326;2023-02-28T14:25:17;17.80;41.00
22714;DHT22;11524;50.846;4.326;2023-02-28T14:27:54;17.90;41.80
22714;DHT22;11524;50.846;4.326;2023-02-28T14:38:45;17.90;41.60
22714;DHT22;11524;50.846;4.326;2023-02-28T14:41:18;17.90;41.60
22714;DHT22;11524;50.846;4.326;2023-02-28T14:43:56;17.90;41.50
22714;DHT22;11524;50.846;4.326;2023-02-28T14:46:25;17.90;41.40
22714;DHT22;11524;50.846;4.326;2023-02-28T14:48:52;18.00;41.70
22714;DHT22;11524;50.846;4.326;2023-02-28T14:51:20;17.90;42.20
22714;DHT22;11524;50.846;4.326;2023-02-28T14:53:50;18.00;42.10
22714;DHT22;11524;50.846;4.326;2023-02-28T14:56:26;17.90;42.00
22714;DHT22;11524;50.846;4.326;2023-02-28T14:58:55;18.00;41.80
22714;DHT22;11524;50.846;4.326;2023-02-28T15:01:23;18.00;41.70
22714;DHT22;11524;50.846;4.326;2023-02-28T15:04:01;18.00;41.90
22714;DHT22;11524;50.846;4.326;2023-02-28T15:06:28;18.00;41.60
22714;DHT22;11524;50.846;4.326;2023-02-28T15:11:33;18.00;40.80
22714;DHT22;11524;50.846;4.326;2023-02-28T15:14:00;18.00;41.20
22714;DHT22;11524;50.846;4.326;2023-02-28T15:16:39;18.00;41.00
22714;DHT22;11524;50.846;4.326;2023-02-28T15:19:18;18.00;41.30
22714;DHT22;11524;50.846;4.326;2023-02-28T15:21:48;18.00;41.50
22714;DHT22;11524;50.846;4.326;2023-02-28T15:26:44;18.00;41.50
22714;DHT22;11524;50.846;4.326;2023-02-28T15:29:20;18.00;41.50
22714;DHT22;11524;50.846;4.326;2023-02-28T15:34:47;18.00;40.90
22714;DHT22;11524;50.846;4.326;2023-02-28T15:37:45;18.00;41.30
22714;DHT22;11524;50.846;4.326;2023-02-28T15:42:37;18.00;40.20
22714;DHT22;11524;50.846;4.326;2023-02-28T15:45:02;18.00;40.70
22714;DHT22;11524;50.846;4.326;2023-02-28T15:47:30;18.00;41.10
22714;DHT22;11524;50.846;4.326;2023-02-28T15:50:09;18.00;41.10
22714;DHT22;11524;50.846;4.326;2023-02-28T15:52:41;18.00;41.30
22714;DHT22;11524;50.846;4.326;2023-02-28T15:55:24;18.00;41.10
22714;DHT22;11524;50.846;4.326;2023-02-28T15:58:04;18.00;41.00
22714;DHT22;11524;50.846;4.326;2023-02-28T16:00:59;18.00;40.50
22714;DHT22;11524;50.846;4.326;2023-02-28T16:03:38;18.00;40.20
22714;DHT22;11524;50.846;4.326;2023-02-28T16:06:23;17.90;41.10
22714;DHT22;11524;50.846;4.326;2023-02-28T16:08:49;18.00;40.80
22714;DHT22;11524;50.846;4.326;2023-02-28T16:11:16;17.90;40.80
22714;DHT22;11524;50.846;4.326;2023-02-28T16:13:42;18.00;41.30
22714;DHT22;11524;50.846;4.326;2023-02-28T16:16:08;18.00;41.10
22714;DHT22;11524;50.846;4.326;2023-02-28T16:18:39;18.00;40.30
22714;DHT22;11524;50.846;4.326;2023-02-28T16:21:05;17.90;40.20
22714;DHT22;11524;50.846;4.326;2023-02-28T16:23:31;17.90;40.30
22714;DHT22;11524;50.846;4.326;2023-02-28T16:25:56;17.90;40.70
22714;DHT22;11524;50.846;4.326;2023-02-28T16:28:27;17.90;40.80
22714;DHT22;11524;50.846;4.326;2023-02-28T16:31:00;17.90;42.20
22714;DHT22;11524;50.846;4.326;2023-02-28T16:33:26;17.90;41.90
22714;DHT22;11524;50.846;4.326;2023-02-28T16:35:52;17.90;41.90
22714;DHT22;11524;50.846;4.326;2023-02-28T16:38:18;17.90;41.00
22714;DHT22;11524;50.846;4.326;2023-02-28T16:40:45;17.90;41.60
22714;DHT22;11524;50.846;4.326;2023-02-28T16:43:17;18.00;42.10
22714;DHT22;11524;50.846;4.326;2023-02-28T16:45:44;17.90;41.60
22714;DHT22;11524;50.846;4.326;2023-02-28T16:48:15;18.00;41.80
22714;DHT22;11524;50.846;4.326;2023-02-28T16:50:41;17.90;42.10
22714;DHT22;11524;50.846;4.326;2023-02-28T16:53:07;17.90;41.60
22714;DHT22;11524;50.846;4.326;2023-02-28T16:55:34;17.90;41.60
22714;DHT22;11524;50.846;4.326;2023-02-28T16:58:01;17.90;41.60
22714;DHT22;11524;50.846;4.326;2023-02-28T17:00:29;17.90;41.60
22714;DHT22;11524;50.846;4.326;2023-02-28T17:02:56;17.80;41.50
22714;DHT22;11524;50.846;4.326;2023-02-28T17:05:24;17.90;41.20
22714;DHT22;11524;50.846;4.326;2023-02-28T17:07:51;17.80;41.20
22714;DHT22;11524;50.846;4.326;2023-02-28T17:10:22;17.80;41.60
22714;DHT22;11524;50.846;4.326;2023-02-28T17:12:48;17.80;41.70
22714;DHT22;11524;50.846;4.326;2023-02-28T17:15:16;17.80;42.00
22714;DHT22;11524;50.846;4.326;2023-02-28T17:17:42;17.80;41.90
22714;DHT22;11524;50.846;4.326;2023-02-28T17:20:16;17.80;41.80
22714;DHT22;11524;50.846;4.326;2023-02-28T17:22:43;17.80;42.00
22714;DHT22;11524;50.846;4.326;2023-02-28T17:25:09;17.80;42.30
22714;DHT22;11524;50.846;4.326;2023-02-28T17:27:36;17.80;43.20
22714;DHT22;11524;50.846;4.326;2023-02-28T17:32:58;17.80;43.50
22714;DHT22;11524;50.846;4.326;2023-02-28T17:35:24;17.70;44.20
22714;DHT22;11524;50.846;4.326;2023-02-28T17:37:49;17.70;44.30
22714;DHT22;11524;50.846;4.326;2023-02-28T17:40:20;17.80;44.60
22714;DHT22;11524;50.846;4.326;2023-02-28T17:42:46;17.70;45.20
22714;DHT22;11524;50.846;4.326;2023-02-28T17:45:13;17.70;44.80
22714;DHT22;11524;50.846;4.326;2023-02-28T17:47:39;17.70;45.30
22714;DHT22;11524;50.846;4.326;2023-02-28T17:50:06;17.70;45.00
22714;DHT22;11524;50.846;4.326;2023-02-28T17:52:31;17.70;45.50
22714;DHT22;11524;50.846;4.326;2023-02-28T17:55:03;17.70;45.40
22714;DHT22;11524;50.846;4.326;2023-02-28T17:57:29;17.70;44.70
22714;DHT22;11524;50.846;4.326;2023-02-28T17:59:55;17.70;44.80
22714;DHT22;11524;50.846;4.326;2023-02-28T18:02:20;17.70;43.90
22714;DHT22;11524;50.846;4.326;2023-02-28T18:04:46;17.70;44.00
22714;DHT22;11524;50.846;4.326;2023-02-28T18:07:12;17.60;44.20
22714;DHT22;11524;50.846;4.326;2023-02-28T18:09:37;17.70;43.90
22714;DHT22;11524;50.846;4.326;2023-02-28T18:12:03;17.70;43.80
22714;DHT22;11524;50.846;4.326;2023-02-28T18:14:29;17.70;43.40